首页
METAR-TAF:

METAR-TAF

机场 :

杰克逊维尔国际机场

杰克逊维尔, 佛罗里达州, 美国

纬度: 30-29-40N, 经度: 081-41-36W, 海拔: 9米

当前天气观测

该预报发布于19分钟前的04:56 UTC
风速5节,风向西
温度 23°C
湿度 94%
气压 1019 hPa
能見度: 16.1公里
多云层高于25000英尺

METAR: KJAX 180456Z 28005KT 10SM BKN250 23/22 A3010 RMK AO2 SLP194 T02330222 403560228 $

时间: 01:15 (05:15 UTC)

预报

该预报发布于5小时和30分钟前的23:45 UTC
预报有效从18日的 00点(UTC)到 18日的 24点(UTC)
风速5节,风向西
能見度: 10公里
少量云层高于5000英尺
散云层高于15000英尺
多云层高于25000英尺
从 18日的 0600点(UTC)
风速节,风向
能見度: 10公里
少量云层高于1000英尺
散云层高于15000英尺
多云层高于25000英尺
从 18日的 1300点(UTC)
风速5节,风向西转西南
能見度: 10公里
散云层高于1500英尺
散云层高于15000英尺
散云层高于25000英尺
从 18日的 1900点(UTC)
风速8节,风向
能見度: 10公里
散云层高于2500英尺
多云层高于4000英尺, 积雨云.
多云层高于12000英尺
附近有雷暴
几率 30%
从 18日的 19点(UTC)到 18日的 23点(UTC)
风速15节,风向多变,有时为25节阵风
能見度: 4.8公里
多云层高于2500英尺
阴天层高于4000英尺, 积雨云.
雷暴, 大雨, 轻雾

TAF: KJAX 172345Z 1800/1824 27005KT P6SM FEW050 SCT150 BKN250 FM180600 00000KT P6SM FEW010 SCT150 BKN250 FM181300 25005KT P6SM SCT015 SCT150 SCT250 FM181900 19008KT P6SM VCTS SCT025 BKN040CB BKN120 PROB30 1819/1823 VRB15G25KT 3SM +TSRA BR BKN025 OVC040CB

超过4000个机场的气象观测和天气预报(METAR&TAF报告)。

可查询的气象台以黄色和红色小点在地图上表示。

将鼠标移到小点上方,可查看气象台名称。

然后点击查看天气观测和预报。

如需切换地图:点击带黑十字的绿色按钮放大地图;点击带横线的绿色按钮缩小地图;或者点击绿色箭头查看邻近地区的地图。


METAR-TAF: